Time;durP1;ratioP1;P1;durP2;ratioP2;P2;SDS_P1;SDS_P2;PMS_P1;PMS_P2;Temp;Humidity;BMP_temperature;BMP_pressure;BME280_temperature;BME280_humidity;BME280_pressure;Samples;Min_cycle;Max_cycle;Signal;HPM_P1;HPM_P2
2022/07/26 00:01:05;;;;;;;7.32;1.90;;;23.00;92.80;;;;;;4993041;28;20082;-49
2022/07/26 00:03:31;;;;;;;5.38;2.17;;;23.00;92.90;;;;;;4992672;28;20483;-52
2022/07/26 00:05:57;;;;;;;2.55;2.30;;;23.00;93.10;;;;;;4993098;28;20671;-47
2022/07/26 00:08:22;;;;;;;4.32;1.98;;;23.00;93.30;;;;;;4992663;28;20026;-47
2022/07/26 00:10:49;;;;;;;9.65;2.13;;;22.90;93.60;;;;;;4993002;28;20027;-48
2022/07/26 00:13:20;;;;;;;8.45;2.20;;;22.90;93.80;;;;;;4992542;28;20029;-50
2022/07/26 00:15:47;;;;;;;6.65;2.20;;;22.90;94.20;;;;;;4992714;28;20029;-47
2022/07/26 00:18:13;;;;;;;5.72;2.10;;;22.80;94.40;;;;;;4992837;28;20034;-46
2022/07/26 00:20:39;;;;;;;8.30;2.42;;;22.70;94.80;;;;;;4992685;28;20026;-47
2022/07/26 00:23:05;;;;;;;5.13;2.28;;;22.70;95.00;;;;;;4992425;28;20026;-50
2022/07/26 00:25:31;;;;;;;3.03;2.10;;;22.60;95.20;;;;;;4992443;28;20037;-52
2022/07/26 00:27:56;;;;;;;7.55;1.98;;;22.60;95.50;;;;;;4992601;28;20018;-47
2022/07/26 00:30:22;;;;;;;6.03;2.70;;;22.60;95.60;;;;;;4992444;28;20015;-51
2022/07/26 00:32:48;;;;;;;5.10;2.22;;;22.60;95.80;;;;;;4992487;28;20053;-48
2022/07/26 00:35:14;;;;;;;3.80;2.30;;;22.60;96.00;;;;;;4992202;28;20046;-49
2022/07/26 00:37:40;;;;;;;6.45;2.20;;;22.60;96.40;;;;;;4992042;28;20030;-49
2022/07/26 00:40:06;;;;;;;3.05;1.80;;;22.50;96.60;;;;;;4992428;28;20105;-47
2022/07/26 00:42:32;;;;;;;4.03;1.80;;;22.40;96.80;;;;;;4992405;28;20141;-48
2022/07/26 00:44:58;;;;;;;3.78;1.55;;;22.40;97.10;;;;;;4991827;28;20498;-48
2022/07/26 00:47:23;;;;;;;2.83;1.85;;;22.30;96.50;;;;;;4992327;28;20434;-51
2022/07/26 00:49:49;;;;;;;2.85;1.52;;;22.30;96.70;;;;;;4991782;28;20030;-50
2022/07/26 00:52:16;;;;;;;3.33;1.70;;;22.30;96.90;;;;;;4992365;28;20158;-48
2022/07/26 00:54:44;;;;;;;9.75;1.98;;;22.40;96.90;;;;;;4974285;28;20033;-48
2022/07/26 00:57:11;;;;;;;2.53;1.70;;;22.40;96.60;;;;;;4992117;28;20030;-48
2022/07/26 00:59:36;;;;;;;2.90;1.67;;;22.40;95.40;;;;;;4991931;28;20384;-49
2022/07/26 01:02:04;;;;;;;4.13;1.92;;;22.40;94.90;;;;;;4974576;28;20055;-48
2022/07/26 01:04:29;;;;;;;6.07;2.00;;;22.40;94.80;;;;;;4991659;28;20112;-50
2022/07/26 01:06:55;;;;;;;9.73;2.42;;;22.50;94.90;;;;;;4992027;28;20479;-49
2022/07/26 01:09:21;;;;;;;3.60;1.70;;;22.40;94.00;;;;;;4991794;28;20069;-49
2022/07/26 01:11:48;;;;;;;5.57;2.03;;;22.50;94.00;;;;;;4992103;28;20038;-50
2022/07/26 01:14:13;;;;;;;4.60;1.98;;;22.50;94.10;;;;;;4991580;28;20035;-45
2022/07/26 01:16:39;;;;;;;9.55;2.00;;;22.40;94.40;;;;;;4991930;28;20023;-48
2022/07/26 01:19:05;;;;;;;8.75;1.60;;;22.50;95.10;;;;;;4991849;28;20077;-51
2022/07/26 01:21:32;;;;;;;4.63;1.60;;;22.40;95.10;;;;;;4991990;28;20019;-52
2022/07/26 01:23:57;;;;;;;6.03;1.95;;;22.30;94.80;;;;;;4974198;28;20046;-49
2022/07/26 01:26:23;;;;;;;10.43;2.28;;;22.20;95.00;;;;;;4991886;28;20543;-49
2022/07/26 01:28:48;;;;;;;4.93;1.98;;;22.20;96.50;;;;;;4991871;28;20033;-49
2022/07/26 01:31:14;;;;;;;8.55;1.80;;;22.20;96.40;;;;;;4991884;28;20033;-48
2022/07/26 01:33:40;;;;;;;5.35;1.80;;;22.00;95.70;;;;;;4991539;28;20105;-51
2022/07/26 01:36:07;;;;;;;4.15;1.65;;;21.90;96.10;;;;;;4974298;28;20041;-49
2022/07/26 01:38:33;;;;;;;6.18;1.95;;;21.80;96.70;;;;;;4991986;28;20351;-47
2022/07/26 01:40:59;;;;;;;7.38;2.00;;;21.70;97.00;;;;;;4991829;28;20026;-45
2022/07/26 01:43:24;;;;;;;5.38;1.73;;;21.60;97.40;;;;;;4991340;28;20022;-47
2022/07/26 01:45:50;;;;;;;6.30;1.90;;;21.60;97.60;;;;;;4974393;28;20026;-52
2022/07/26 01:48:15;;;;;;;6.63;2.00;;;21.50;97.50;;;;;;4992495;28;20073;-51
2022/07/26 01:50:41;;;;;;;7.15;2.35;;;21.50;98.00;;;;;;4994984;28;20038;-48
2022/07/26 01:53:06;;;;;;;5.13;1.65;;;21.40;98.10;;;;;;4977780;28;20042;-46
2022/07/26 01:55:33;;;;;;;4.43;2.70;;;21.40;98.30;;;;;;4995373;28;20026;-51
2022/07/26 01:57:58;;;;;;;3.42;1.80;;;21.30;98.40;;;;;;4995422;28;20049;-50
2022/07/26 02:00:24;;;;;;;5.38;1.73;;;21.20;98.60;;;;;;4995312;28;20030;-51
2022/07/26 02:02:49;;;;;;;5.68;2.42;;;21.20;98.80;;;;;;4995379;28;20431;-45
2022/07/26 02:05:15;;;;;;;5.68;2.10;;;21.10;98.90;;;;;;4994825;28;20502;-49
2022/07/26 02:07:42;;;;;;;6.60;1.95;;;21.10;99.30;;;;;;4995147;28;20034;-47
2022/07/26 02:10:09;;;;;;;5.03;1.77;;;21.10;99.10;;;;;;5004342;23;20065;-50
2022/07/26 02:12:35;;;;;;;3.95;1.80;;;21.10;98.50;;;;;;4975815;28;20034;-48
2022/07/26 02:15:02;;;;;;;2.67;1.75;;;21.10;98.40;;;;;;4975424;28;20069;-47
2022/07/26 02:17:27;;;;;;;5.32;1.77;;;21.10;98.80;;;;;;4975893;28;20035;-48
2022/07/26 02:19:53;;;;;;;13.90;6.78;;;21.10;99.00;;;;;;4975537;28;20038;-48
2022/07/26 02:22:18;;;;;;;9.00;2.53;;;21.10;98.90;;;;;;4975523;28;20019;-48
2022/07/26 02:24:45;;;;;;;3.58;2.10;;;21.10;98.90;;;;;;4975157;28;20055;-49
2022/07/26 02:27:10;;;;;;;3.45;1.80;;;21.20;98.80;;;;;;4975443;28;20369;-49
2022/07/26 02:29:36;;;;;;;6.28;1.63;;;21.10;99.40;;;;;;4975239;28;20030;-50
2022/07/26 02:32:02;;;;;;;4.35;1.55;;;21.10;99.90;;;;;;4975220;28;20031;-47
2022/07/26 02:34:27;;;;;;;5.80;2.00;;;21.10;99.10;;;;;;4975137;28;20034;-50
2022/07/26 02:36:53;;;;;;;8.07;1.95;;;21.10;99.00;;;;;;4975272;28;20030;-49
2022/07/26 02:39:19;;;;;;;5.18;2.10;;;21.10;99.10;;;;;;4975146;28;20050;-51
2022/07/26 02:41:44;;;;;;;3.13;2.17;;;21.00;99.10;;;;;;4975099;28;20022;-50
2022/07/26 02:44:10;;;;;;;7.65;2.13;;;21.00;99.10;;;;;;4974695;28;20035;-48
2022/07/26 02:46:36;;;;;;;5.75;1.90;;;21.00;98.90;;;;;;4957793;28;20491;-48
2022/07/26 02:49:02;;;;;;;13.60;1.95;;;21.00;98.80;;;;;;4974906;28;20396;-48
2022/07/26 02:51:27;;;;;;;5.63;1.98;;;20.90;98.90;;;;;;4957549;28;20023;-46
2022/07/26 02:53:53;;;;;;;2.95;1.45;;;20.90;99.10;;;;;;4974529;28;20039;-50
2022/07/26 02:56:19;;;;;;;3.25;1.88;;;20.90;98.80;;;;;;4957443;28;20026;-47
2022/07/26 02:58:45;;;;;;;4.20;1.90;;;20.80;99.00;;;;;;4974512;28;20026;-48
2022/07/26 03:01:10;;;;;;;3.60;1.75;;;20.80;98.80;;;;;;4974717;28;20158;-47
2022/07/26 03:03:36;;;;;;;4.93;2.13;;;20.80;99.00;;;;;;4974499;28;20026;-47
2022/07/26 03:06:02;;;;;;;4.18;1.73;;;20.80;99.10;;;;;;4974671;28;20031;-47
2022/07/26 03:08:27;;;;;;;6.38;2.22;;;20.90;99.10;;;;;;4974666;28;20226;-47
2022/07/26 03:10:53;;;;;;;6.78;1.80;;;20.80;99.20;;;;;;4975277;28;20042;-46
2022/07/26 03:13:18;;;;;;;5.80;1.85;;;20.90;99.50;;;;;;4974365;28;20142;-49
2022/07/26 03:15:44;;;;;;;5.35;1.77;;;20.90;99.60;;;;;;4974253;28;20154;-47
2022/07/26 03:18:09;;;;;;;5.70;1.73;;;20.80;99.70;;;;;;4957175;28;20031;-48
2022/07/26 03:20:35;;;;;;;3.50;1.80;;;20.80;99.60;;;;;;4974347;28;20026;-47
2022/07/26 03:23:00;;;;;;;2.08;1.88;;;20.80;99.60;;;;;;4974394;28;20556;-46
2022/07/26 03:25:26;;;;;;;8.45;2.00;;;20.90;99.70;;;;;;4974238;28;20109;-49
2022/07/26 03:27:55;;;;;;;6.07;1.80;;;20.80;99.80;;;;;;4974291;28;20150;-49
2022/07/26 03:30:22;;;;;;;3.42;1.83;;;20.80;99.90;;;;;;4974172;28;20027;-49
2022/07/26 03:32:48;;;;;;;4.30;1.67;;;20.80;99.90;;;;;;4974165;28;20026;-50
2022/07/26 03:35:13;;;;;;;7.93;2.10;;;20.80;99.90;;;;;;4956606;28;20041;-52
2022/07/26 03:37:38;;;;;;;5.05;2.05;;;20.80;99.90;;;;;;4973984;28;20034;-48
2022/07/26 03:40:06;;;;;;;5.63;1.80;;;20.80;99.90;;;;;;4974125;28;20030;-48
2022/07/26 03:42:31;;;;;;;7.35;2.25;;;20.70;99.90;;;;;;4973892;28;20023;-51
2022/07/26 03:44:57;;;;;;;7.20;1.95;;;20.70;99.90;;;;;;4973566;28;20029;-46
2022/07/26 03:47:22;;;;;;;3.85;1.88;;;20.60;99.90;;;;;;4973885;28;20476;-49
2022/07/26 03:49:48;;;;;;;7.53;1.67;;;20.60;99.90;;;;;;4973478;28;20027;-52
2022/07/26 03:52:13;;;;;;;1.92;1.58;;;20.50;99.90;;;;;;4973839;28;20496;-48
2022/07/26 03:54:39;;;;;;;4.80;2.08;;;20.60;99.90;;;;;;4956154;28;20114;-48
2022/07/26 03:57:04;;;;;;;7.13;1.77;;;20.50;99.90;;;;;;4973456;28;20034;-52
2022/07/26 03:59:30;;;;;;;6.20;2.50;;;20.50;99.90;;;;;;4973636;28;20023;-47
2022/07/26 04:01:55;;;;;;;3.83;2.10;;;20.50;99.90;;;;;;4973688;28;20027;-48
2022/07/26 04:04:21;;;;;;;3.67;1.67;;;20.60;99.90;;;;;;4973260;28;20030;-49
2022/07/26 04:06:46;;;;;;;3.28;1.80;;;20.50;99.90;;;;;;4974074;28;20038;-51
2022/07/26 04:09:13;;;;;;;4.40;2.10;;;20.50;99.90;;;;;;4973453;28;20053;-47
2022/07/26 04:11:40;;;;;;;5.53;1.60;;;20.50;99.80;;;;;;4972624;28;20030;-52
2022/07/26 04:14:05;;;;;;;13.20;1.90;;;20.50;99.90;;;;;;4973124;28;20075;-50
2022/07/26 04:16:31;;;;;;;3.22;1.70;;;20.40;99.80;;;;;;4973388;28;20492;-46
2022/07/26 04:18:57;;;;;;;5.03;2.08;;;20.50;99.70;;;;;;4973433;28;20026;-48
2022/07/26 04:21:23;;;;;;;3.78;1.70;;;20.50;99.40;;;;;;4973212;28;20050;-48
2022/07/26 04:23:48;;;;;;;6.68;1.83;;;20.50;99.40;;;;;;4972995;28;20113;-47
2022/07/26 04:26:14;;;;;;;4.50;1.90;;;20.40;99.40;;;;;;4973167;28;20105;-47
2022/07/26 04:28:40;;;;;;;5.25;2.10;;;20.40;99.30;;;;;;4973365;28;20037;-48
2022/07/26 04:31:06;;;;;;;4.30;1.70;;;20.20;99.40;;;;;;4973211;28;20053;-51
2022/07/26 04:33:32;;;;;;;3.50;1.70;;;20.20;99.60;;;;;;4972686;28;20026;-47
2022/07/26 04:35:58;;;;;;;3.38;1.70;;;20.20;99.40;;;;;;4973069;28;20030;-48
2022/07/26 04:38:24;;;;;;;3.22;1.70;;;20.10;99.50;;;;;;4972883;28;20027;-47
2022/07/26 04:40:50;;;;;;;3.22;1.63;;;20.00;99.70;;;;;;4972940;28;20022;-47
2022/07/26 04:43:16;;;;;;;10.90;2.85;;;20.00;99.70;;;;;;4972636;28;20030;-48
2022/07/26 04:45:44;;;;;;;5.78;1.92;;;20.10;99.60;;;;;;4973143;28;20369;-52
2022/07/26 04:48:09;;;;;;;5.05;1.90;;;20.00;99.60;;;;;;4972917;28;20030;-49
2022/07/26 04:50:35;;;;;;;6.53;1.75;;;20.10;99.60;;;;;;4972669;28;20480;-48
2022/07/26 04:53:01;;;;;;;6.32;2.25;;;20.10;99.60;;;;;;4972552;28;20038;-48
2022/07/26 04:55:27;;;;;;;5.32;1.92;;;20.10;99.80;;;;;;4972696;28;20041;-48
2022/07/26 04:57:52;;;;;;;3.47;1.13;;;20.30;99.60;;;;;;4972785;28;20027;-48
2022/07/26 05:00:22;;;;;;;2.42;1.42;;;20.70;98.60;;;;;;4972776;28;20030;-47
2022/07/26 05:02:48;;;;;;;4.35;1.60;;;21.30;97.70;;;;;;4972945;28;20270;-50
2022/07/26 05:05:14;;;;;;;4.15;1.67;;;22.00;96.50;;;;;;4955116;28;20027;-50
2022/07/26 05:07:41;;;;;;;1.58;1.20;;;22.70;95.00;;;;;;4972701;28;20033;-51
2022/07/26 05:10:08;;;;;;;2.55;1.35;;;23.40;93.70;;;;;;4972295;28;20031;-49
2022/07/26 05:12:34;;;;;;;2.92;1.40;;;23.90;92.20;;;;;;4972486;28;20455;-49
2022/07/26 05:14:59;;;;;;;4.50;1.75;;;24.40;91.40;;;;;;4972388;28;20034;-49
2022/07/26 05:17:25;;;;;;;2.22;1.17;;;24.70;90.50;;;;;;4972517;28;20030;-49
2022/07/26 05:19:50;;;;;;;3.75;1.35;;;25.20;90.00;;;;;;4972480;28;20057;-50
2022/07/26 05:22:16;;;;;;;4.47;1.10;;;25.80;87.10;;;;;;4973556;28;20106;-49
2022/07/26 05:24:41;;;;;;;2.67;1.20;;;26.30;85.70;;;;;;4976455;28;20030;-49
2022/07/26 05:27:07;;;;;;;3.20;1.00;;;26.60;85.40;;;;;;4976579;28;20049;-48
2022/07/26 05:29:33;;;;;;;4.65;0.82;;;27.00;83.20;;;;;;4976396;28;20038;-49
2022/07/26 05:31:59;;;;;;;1.98;0.90;;;27.40;81.60;;;;;;4976467;28;20069;-48
2022/07/26 05:34:24;;;;;;;1.60;1.15;;;27.70;80.90;;;;;;4975897;28;20035;-50
2022/07/26 05:36:50;;;;;;;1.58;1.00;;;28.00;79.50;;;;;;4976554;28;20030;-51
2022/07/26 05:39:15;;;;;;;1.67;1.00;;;28.20;78.70;;;;;;4966780;28;20037;-50
2022/07/26 05:41:41;;;;;;;8.75;1.15;;;28.30;78.00;;;;;;4976186;28;20031;-48
2022/07/26 05:44:06;;;;;;;4.13;0.88;;;28.40;77.10;;;;;;4958797;28;20404;-47
2022/07/26 05:46:32;;;;;;;3.78;1.38;;;28.70;75.80;;;;;;4956857;29;20404;-49
2022/07/26 05:48:57;;;;;;;2.55;0.90;;;28.90;76.00;;;;;;4956526;29;20028;-48
2022/07/26 05:51:23;;;;;;;6.32;1.25;;;29.30;74.60;;;;;;4959175;28;20585;-50
2022/07/26 05:53:48;;;;;;;1.58;1.08;;;29.20;74.40;;;;;;4974220;28;20550;-50
2022/07/26 05:56:14;;;;;;;3.58;0.93;;;29.10;75.00;;;;;;4975663;28;20026;-47
2022/07/26 05:58:39;;;;;;;4.65;0.90;;;29.00;73.70;;;;;;4974974;28;20034;-48
2022/07/26 06:01:05;;;;;;;2.40;0.82;;;28.80;74.50;;;;;;4976026;28;20113;-49
2022/07/26 06:03:31;;;;;;;2.15;1.00;;;28.70;74.30;;;;;;4975441;28;20034;-52
2022/07/26 06:05:57;;;;;;;2.00;0.82;;;29.00;73.70;;;;;;4975982;28;20325;-51
2022/07/26 06:08:24;;;;;;;3.60;1.25;;;29.20;73.30;;;;;;4975598;28;20027;-52
2022/07/26 06:10:50;;;;;;;4.78;0.90;;;29.50;72.80;;;;;;4958302;28;20030;-47
2022/07/26 06:13:16;;;;;;;6.13;0.93;;;30.20;72.30;;;;;;4975189;28;20373;-48
2022/07/26 06:15:42;;;;;;;3.90;0.80;;;30.70;70.90;;;;;;4956167;29;20035;-48
2022/07/26 06:18:08;;;;;;;3.08;0.80;;;31.00;70.10;;;;;;4960193;28;20027;-49
2022/07/26 06:20:41;;;;;;;2.20;1.02;;;31.30;69.00;;;;;;4974700;28;20035;-53
2022/07/26 06:23:06;;;;;;;1.75;0.68;;;31.50;68.50;;;;;;4947162;28;20403;-55
2022/07/26 06:25:32;;;;;;;1.38;0.85;;;31.90;67.90;;;;;;4973618;28;20042;-52
2022/07/26 06:27:58;;;;;;;4.60;0.70;;;32.30;66.10;;;;;;4976227;28;20062;-50
2022/07/26 06:30:23;;;;;;;5.15;0.77;;;32.60;66.00;;;;;;4976251;28;20616;-48
2022/07/26 06:32:49;;;;;;;4.72;0.90;;;32.80;65.50;;;;;;4958145;28;20062;-51
2022/07/26 06:35:14;;;;;;;4.80;0.80;;;32.80;65.40;;;;;;4956883;28;20077;-52
2022/07/26 06:37:41;;;;;;;4.30;1.25;;;33.00;64.10;;;;;;4975191;28;20061;-51
2022/07/26 06:40:10;;;;;;;2.38;0.85;;;33.30;63.60;;;;;;4957748;28;20444;-53
2022/07/26 06:42:36;;;;;;;6.25;5.68;;;33.40;64.00;;;;;;4975269;28;20495;-51
2022/07/26 06:45:03;;;;;;;24.55;16.73;;;33.20;63.50;;;;;;4974894;28;20145;-49
2022/07/26 06:47:28;;;;;;;1.58;0.90;;;33.30;63.10;;;;;;4975032;28;20499;-50
2022/07/26 06:49:54;;;;;;;2.25;0.95;;;33.40;62.60;;;;;;4975089;28;20023;-53
2022/07/26 06:52:19;;;;;;;4.43;0.90;;;33.50;62.60;;;;;;4974698;28;20027;-54
2022/07/26 06:54:45;;;;;;;3.20;0.98;;;33.90;61.60;;;;;;4974602;28;20027;-51
2022/07/26 06:57:11;;;;;;;3.80;0.82;;;34.00;61.60;;;;;;4972997;28;20035;-56
2022/07/26 06:59:36;;;;;;;3.78;0.60;;;34.20;61.10;;;;;;4955574;28;20622;-54
2022/07/26 07:02:02;;;;;;;4.63;0.75;;;34.50;61.00;;;;;;4973550;28;20101;-56
2022/07/26 07:04:29;;;;;;;1.70;0.95;;;34.30;60.40;;;;;;4974309;28;20447;-53
2022/07/26 07:06:56;;;;;;;3.78;0.90;;;34.20;60.60;;;;;;4974752;28;20126;-56
2022/07/26 07:09:23;;;;;;;2.65;1.00;;;34.00;61.00;;;;;;4974568;28;20034;-55
2022/07/26 07:11:48;;;;;;;2.72;0.70;;;34.30;61.10;;;;;;4974500;28;20019;-52
2022/07/26 07:14:14;;;;;;;2.10;0.82;;;34.30;60.70;;;;;;4974274;28;20027;-50
2022/07/26 07:16:40;;;;;;;0.80;0.60;;;34.30;60.70;;;;;;4974590;28;20053;-52
2022/07/26 07:19:05;;;;;;;2.95;0.90;;;34.30;60.70;;;;;;4974470;28;20031;-50
2022/07/26 07:21:32;;;;;;;2.60;1.30;;;33.80;60.90;;;;;;4974496;28;20494;-53
2022/07/26 07:23:58;;;;;;;2.65;0.75;;;33.70;61.30;;;;;;4974585;28;20034;-52
2022/07/26 07:26:24;;;;;;;4.43;0.98;;;33.90;61.00;;;;;;4974297;28;20026;-54
2022/07/26 07:28:49;;;;;;;5.45;0.80;;;34.40;60.20;;;;;;4976021;28;20023;-54
2022/07/26 07:31:15;;;;;;;1.80;0.63;;;34.60;60.20;;;;;;4975326;28;20035;-55
2022/07/26 07:33:40;;;;;;;3.55;1.70;;;34.70;59.90;;;;;;4973932;28;20038;-50
2022/07/26 07:36:06;;;;;;;5.45;1.02;;;34.60;59.90;;;;;;4974159;28;20506;-54
2022/07/26 07:38:31;;;;;;;3.53;1.52;;;33.70;60.20;;;;;;4973819;28;20066;-56
2022/07/26 07:40:57;;;;;;;4.30;0.75;;;32.90;61.50;;;;;;4956729;28;20210;-50
2022/07/26 07:43:22;;;;;;;3.55;0.52;;;33.00;61.60;;;;;;4973598;28;20027;-49
2022/07/26 07:45:48;;;;;;;2.63;0.57;;;33.20;61.10;;;;;;4972954;28;20539;-54
2022/07/26 07:48:13;;;;;;;2.10;0.80;;;32.90;61.70;;;;;;4956620;28;20023;-52
2022/07/26 07:50:39;;;;;;;2.88;0.77;;;31.80;63.10;;;;;;4973795;28;20027;-50
2022/07/26 07:53:04;;;;;;;1.73;0.57;;;31.10;64.10;;;;;;4973649;28;20458;-54
2022/07/26 07:55:30;;;;;;;5.32;0.90;;;30.60;64.80;;;;;;4973637;28;20041;-50
2022/07/26 07:57:55;;;;;;;3.35;0.90;;;30.60;65.50;;;;;;4973701;28;20039;-50
2022/07/26 08:00:21;;;;;;;6.57;1.40;;;30.50;65.30;;;;;;4973607;28;20447;-53
2022/07/26 08:02:46;;;;;;;2.47;0.75;;;29.50;66.50;;;;;;4973585;28;20026;-52
2022/07/26 08:05:13;;;;;;;5.85;1.05;;;28.30;70.10;;;;;;4973785;28;20506;-50
2022/07/26 08:07:39;;;;;;;1.60;0.73;;;28.80;70.40;;;;;;4973665;28;20080;-51
2022/07/26 08:10:05;;;;;;;1.30;0.80;;;30.20;68.20;;;;;;4974677;28;20062;-52
2022/07/26 08:12:31;;;;;;;0.93;0.60;;;31.20;65.60;;;;;;4973485;28;20034;-54
2022/07/26 08:14:56;;;;;;;6.38;1.10;;;31.20;65.40;;;;;;4973215;28;20026;-51
2022/07/26 08:17:23;;;;;;;7.43;0.98;;;30.60;65.50;;;;;;4955850;28;20153;-54
2022/07/26 08:19:48;;;;;;;2.40;0.82;;;31.00;65.90;;;;;;4973245;28;20089;-53
2022/07/26 08:22:14;;;;;;;2.72;1.23;;;31.50;65.10;;;;;;4955998;28;20101;-53
2022/07/26 08:24:39;;;;;;;1.60;0.90;;;32.20;62.50;;;;;;4971868;28;20019;-56
2022/07/26 08:27:05;;;;;;;3.40;0.80;;;32.30;63.10;;;;;;4972076;28;20022;-51
2022/07/26 08:29:31;;;;;;;6.28;0.90;;;32.80;62.20;;;;;;4972429;28;20089;-49
2022/07/26 08:31:56;;;;;;;5.75;0.80;;;33.10;62.30;;;;;;4955515;28;20035;-55
2022/07/26 08:34:22;;;;;;;61.53;52.78;;;33.10;62.30;;;;;;4971755;28;20031;-52
2022/07/26 08:36:47;;;;;;;4.57;3.15;;;32.10;63.30;;;;;;4972812;28;20046;-50
2022/07/26 08:39:13;;;;;;;4.50;1.45;;;31.60;63.60;;;;;;4972906;28;20492;-53
2022/07/26 08:41:39;;;;;;;5.28;0.80;;;30.70;64.80;;;;;;4973053;28;20458;-55
2022/07/26 08:44:10;;;;;;;5.13;1.98;;;29.90;66.30;;;;;;4973765;28;20030;-53
2022/07/26 08:46:37;;;;;;;4.88;0.98;;;29.70;67.40;;;;;;4973024;28;20023;-48
2022/07/26 08:49:05;;;;;;;1.63;0.70;;;29.50;66.50;;;;;;4973135;28;20073;-55
2022/07/26 08:51:31;;;;;;;4.15;0.80;;;29.70;66.80;;;;;;4974912;28;20054;-52
2022/07/26 08:53:58;;;;;;;2.88;0.60;;;29.90;66.80;;;;;;4966719;28;20074;-53
2022/07/26 08:56:23;;;;;;;1.90;0.65;;;29.50;66.90;;;;;;4939922;28;20051;-56
2022/07/26 08:58:49;;;;;;;3.63;0.88;;;29.60;66.40;;;;;;4954785;29;20639;-51
2022/07/26 09:01:14;;;;;;;3.00;0.68;;;29.10;67.10;;;;;;4953717;29;20023;-51
2022/07/26 09:03:42;;;;;;;3.58;0.80;;;28.50;66.70;;;;;;4935918;29;20527;-52
2022/07/26 09:06:18;;;;;;;5.93;1.13;;;27.80;68.00;;;;;;4936202;29;20031;-52
2022/07/26 09:08:47;;;;;;;2.85;0.65;;;27.40;70.20;;;;;;4953244;29;20035;-53
2022/07/26 09:11:31;;;;;;;1.35;0.80;;;26.70;71.10;;;;;;4969826;28;20030;-50
2022/07/26 09:14:00;;;;;;;0.73;0.60;;;26.40;71.50;;;;;;4971582;28;20051;-52
2022/07/26 09:16:26;;;;;;;5.97;0.88;;;26.30;72.30;;;;;;4972230;28;20035;-56
2022/07/26 09:18:53;;;;;;;4.35;0.98;;;26.50;72.80;;;;;;4971852;28;20432;-56
2022/07/26 09:21:30;;;;;;;5.85;0.90;;;27.00;71.90;;;;;;4970837;28;20038;-50
2022/07/26 09:23:56;;;;;;;1.33;0.80;;;27.20;71.10;;;;;;4970632;28;20057;-46
2022/07/26 09:26:22;;;;;;;4.25;0.80;;;27.50;70.70;;;;;;4973197;28;20566;-50
2022/07/26 09:29:08;;;;;;;3.63;0.80;;;27.50;69.50;;;;;;4965295;28;20070;-52
2022/07/26 09:31:35;;;;;;;3.85;0.80;;;27.80;69.90;;;;;;4976396;28;20027;-51
2022/07/26 09:34:01;;;;;;;1.35;0.90;;;27.50;70.50;;;;;;4963238;28;20027;-52
2022/07/26 09:36:27;;;;;;;1.95;0.60;;;27.30;71.00;;;;;;4977694;28;20055;-50
2022/07/26 09:38:59;;;;;;;3.88;0.70;;;27.00;71.40;;;;;;4978019;28;20030;-49
2022/07/26 09:41:29;;;;;;;0.73;0.73;;;26.90;72.90;;;;;;4982046;28;20023;-53
2022/07/26 09:43:58;;;;;;;4.10;1.00;;;26.30;72.70;;;;;;4955435;28;20027;-49
2022/07/26 09:46:24;;;;;;;1.55;0.65;;;26.20;73.00;;;;;;4985595;28;20027;-48
2022/07/26 09:48:51;;;;;;;2.05;0.90;;;26.20;73.60;;;;;;4985284;28;20034;-47
2022/07/26 09:51:35;;;;;;;1.40;0.73;;;26.60;73.30;;;;;;4984812;28;20023;-53
2022/07/26 09:54:01;;;;;;;1.63;0.70;;;26.70;72.90;;;;;;4984023;28;20027;-51
2022/07/26 09:56:41;;;;;;;0.82;0.82;;;26.60;72.90;;;;;;4984190;28;20089;-51
2022/07/26 09:59:08;;;;;;;3.63;2.03;;;26.60;73.20;;;;;;4980968;28;20026;-52
2022/07/26 10:01:33;;;;;;;1.55;1.20;;;26.90;73.30;;;;;;4978312;28;20027;-45
2022/07/26 10:03:59;;;;;;;1.52;0.70;;;27.30;72.60;;;;;;4976057;28;20502;-50
2022/07/26 10:06:24;;;;;;;1.60;0.95;;;27.70;70.80;;;;;;4976661;28;20031;-48
2022/07/26 10:08:51;;;;;;;1.83;0.80;;;27.70;70.90;;;;;;4976035;28;20431;-49
2022/07/26 10:11:19;;;;;;;4.57;1.33;;;27.40;70.90;;;;;;4979469;28;20042;-45
2022/07/26 10:13:44;;;;;;;1.85;0.88;;;27.20;71.00;;;;;;4974674;28;20062;-51
2022/07/26 10:16:39;;;;;;;3.22;1.10;;;26.90;72.20;;;;;;4975517;28;20093;-51
2022/07/26 10:19:06;;;;;;;6.40;1.20;;;26.70;72.70;;;;;;4964031;28;20039;-49
2022/07/26 10:21:34;;;;;;;2.35;1.00;;;26.80;72.20;;;;;;4976032;28;20751;-48
2022/07/26 10:24:01;;;;;;;1.67;0.90;;;26.90;73.20;;;;;;4978318;28;20023;-53
2022/07/26 10:26:33;;;;;;;4.65;1.00;;;27.10;72.70;;;;;;4976945;28;20488;-57
2022/07/26 10:29:22;;;;;;;2.25;1.10;;;27.30;72.30;;;;;;4981832;28;20023;-48
2022/07/26 10:32:12;;;;;;;2.88;0.88;;;27.30;70.80;;;;;;4973650;28;20038;-50
2022/07/26 10:34:39;;;;;;;2.10;0.68;;;27.30;71.40;;;;;;4974415;28;20054;-51
2022/07/26 10:37:10;;;;;;;1.33;1.00;;;27.60;71.60;;;;;;4975106;28;20035;-49
2022/07/26 10:39:37;;;;;;;0.90;0.70;;;27.80;70.60;;;;;;4973769;28;20019;-47
2022/07/26 10:42:08;;;;;;;1.85;0.70;;;27.60;69.30;;;;;;4974006;28;20019;-49
2022/07/26 10:44:40;;;;;;;1.13;0.90;;;27.40;69.50;;;;;;4974738;28;20031;-47
2022/07/26 10:47:06;;;;;;;1.45;0.68;;;27.50;70.50;;;;;;4975492;28;20046;-48
2022/07/26 10:49:56;;;;;;;1.98;0.90;;;27.70;69.80;;;;;;4975201;28;20022;-47
2022/07/26 10:52:22;;;;;;;1.67;0.70;;;27.60;69.30;;;;;;4973948;28;20097;-44
2022/07/26 10:54:59;;;;;;;3.83;0.80;;;27.40;69.40;;;;;;4974530;28;20031;-47
2022/07/26 10:57:26;;;;;;;0.77;0.77;;;27.30;69.80;;;;;;4973516;28;20446;-46
2022/07/26 10:59:52;;;;;;;2.08;0.60;;;27.20;69.70;;;;;;4973370;28;20022;-48
2022/07/26 11:02:22;;;;;;;3.22;0.80;;;27.30;70.20;;;;;;4973615;28;20037;-46
2022/07/26 11:05:16;;;;;;;1.60;0.88;;;27.30;69.00;;;;;;4973200;28;20070;-49
2022/07/26 11:07:55;;;;;;;30.58;24.00;;;27.40;70.10;;;;;;4974843;28;20031;-48
2022/07/26 11:10:33;;;;;;;5.50;3.88;;;27.20;69.20;;;;;;4974602;28;20046;-46
2022/07/26 11:13:14;;;;;;;1.50;0.60;;;27.00;69.40;;;;;;4973420;28;20448;-45
2022/07/26 11:15:49;;;;;;;0.93;0.63;;;27.00;70.40;;;;;;4974811;28;20447;-46
2022/07/26 11:18:16;;;;;;;;;;;27.00;70.40;;;;;;4974940;28;20027;-48
2022/07/26 11:20:44;;;;;;;1.48;0.80;;;26.90;69.90;;;;;;4973077;28;19910;-47
2022/07/26 11:23:30;;;;;;;5.88;0.73;;;26.80;71.00;;;;;;4957122;28;20023;-47
2022/07/26 11:25:59;;;;;;;1.38;0.93;;;26.90;71.20;;;;;;4974412;28;20034;-47
2022/07/26 11:28:25;;;;;;;2.92;0.80;;;27.00;69.70;;;;;;4974543;28;20377;-46
2022/07/26 11:30:58;;;;;;;1.77;0.80;;;26.90;71.10;;;;;;4973044;28;20030;-48
2022/07/26 11:33:37;;;;;;;2.00;0.70;;;27.00;70.00;;;;;;4974283;28;20468;-47
2022/07/26 11:36:04;;;;;;;1.02;0.70;;;26.90;69.50;;;;;;4974078;28;20023;-48
2022/07/26 11:38:49;;;;;;;3.08;0.77;;;26.70;69.70;;;;;;4973977;28;20023;-45
2022/07/26 11:41:22;;;;;;;2.15;0.50;;;26.80;69.60;;;;;;4974034;28;20054;-47
2022/07/26 11:43:49;;;;;;;2.40;0.80;;;26.80;69.90;;;;;;4973899;28;20029;-50
2022/07/26 11:46:16;;;;;;;1.65;0.75;;;26.70;69.10;;;;;;4973955;28;20030;-45
2022/07/26 11:48:50;;;;;;;4.35;0.70;;;26.70;70.20;;;;;;4972573;28;20376;-50
2022/07/26 11:51:17;;;;;;;4.53;0.70;;;26.80;69.40;;;;;;4973938;28;20089;-48
2022/07/26 11:53:44;;;;;;;3.10;0.85;;;26.90;69.20;;;;;;4973544;28;20354;-46
2022/07/26 11:56:19;;;;;;;1.02;0.70;;;27.00;69.70;;;;;;4973349;28;20027;-50
2022/07/26 11:58:48;;;;;;;1.73;0.80;;;27.10;69.60;;;;;;4972525;28;20026;-50
2022/07/26 12:01:17;;;;;;;1.35;0.73;;;27.20;70.00;;;;;;4973650;28;20365;-45
2022/07/26 12:03:44;;;;;;;1.45;1.10;;;27.20;68.50;;;;;;4973135;28;20050;-48
2022/07/26 12:06:16;;;;;;;6.25;2.90;;;27.20;68.90;;;;;;4973556;28;20488;-48
2022/07/26 12:08:54;;;;;;;4.32;1.20;;;27.10;69.00;;;;;;4973464;28;20035;-48
2022/07/26 12:11:21;;;;;;;1.02;0.70;;;27.20;69.00;;;;;;4973436;28;20162;-49
2022/07/26 12:13:50;;;;;;;1.90;0.80;;;27.10;69.60;;;;;;4973125;28;20026;-45
2022/07/26 12:16:44;;;;;;;3.50;0.75;;;27.00;69.70;;;;;;4973029;28;20027;-46
2022/07/26 12:19:21;;;;;;;1.38;0.75;;;27.00;69.00;;;;;;4973157;28;20019;-49
2022/07/26 12:21:48;;;;;;;0.52;0.52;;;26.90;69.80;;;;;;4973076;28;20047;-46
2022/07/26 12:24:37;;;;;;;4.32;0.85;;;26.80;69.30;;;;;;4973159;28;20062;-46
2022/07/26 12:27:11;;;;;;;1.98;0.90;;;26.80;68.70;;;;;;4973082;28;20117;-47
2022/07/26 12:29:38;;;;;;;3.17;0.60;;;26.80;68.80;;;;;;4973304;28;20027;-49
2022/07/26 12:32:10;;;;;;;1.10;0.70;;;27.00;70.10;;;;;;4972408;28;20035;-48
2022/07/26 12:34:37;;;;;;;1.52;0.80;;;27.10;68.50;;;;;;4972819;28;20061;-49
2022/07/26 12:37:12;;;;;;;1.42;0.70;;;27.20;67.90;;;;;;4972924;28;20123;-47
2022/07/26 12:39:39;;;;;;;0.85;0.50;;;27.20;68.40;;;;;;4973077;28;20444;-48
2022/07/26 12:42:26;;;;;;;2.97;0.75;;;27.30;68.20;;;;;;4972940;28;20321;-45
2022/07/26 12:44:51;;;;;;;2.47;1.05;;;27.40;68.40;;;;;;4971282;28;20495;-46
2022/07/26 12:47:17;;;;;;;1.58;0.70;;;27.30;71.10;;;;;;4972787;28;20089;-46